createdAt,value
2023-10-26T00:00:02.866Z,3.47
2023-10-26T00:05:15.325Z,3.42
2023-10-26T00:10:17.681Z,2.63
2023-10-26T00:15:19.760Z,3.08
2023-10-26T00:20:21.845Z,3.70
2023-10-26T00:25:23.686Z,3.95
2023-10-26T00:30:25.689Z,3.40
2023-10-26T00:35:27.561Z,3.83
2023-10-26T00:40:29.586Z,3.13
2023-10-26T00:45:36.680Z,3.55
2023-10-26T00:50:39.850Z,3.70
2023-10-26T00:55:42.635Z,3.08
2023-10-26T01:00:45.809Z,3.00
2023-10-26T01:05:47.774Z,2.95
2023-10-26T01:10:49.629Z,3.25
2023-10-26T01:15:51.670Z,3.03
2023-10-26T01:20:55.399Z,3.28
2023-10-26T01:25:59.601Z,3.40
2023-10-26T01:31:04.275Z,3.22
2023-10-26T01:36:06.231Z,4.28
2023-10-26T01:41:08.197Z,3.88
2023-10-26T01:46:09.875Z,4.30
2023-10-26T01:51:11.985Z,4.70
2023-10-26T01:56:15.399Z,4.35
2023-10-26T02:01:17.491Z,4.55
2023-10-26T02:06:19.477Z,4.38
2023-10-26T02:11:21.276Z,3.63
2023-10-26T02:16:22.947Z,3.92
2023-10-26T02:21:24.666Z,3.20
2023-10-26T02:26:26.394Z,3.22
2023-10-26T02:31:28.145Z,3.10
2023-10-26T02:36:31.122Z,2.20
2023-10-26T02:41:32.889Z,1.73
2023-10-26T02:46:34.560Z,1.42
2023-10-26T02:51:36.274Z,1.02
2023-10-26T02:56:38.039Z,0.90
2023-10-26T03:01:39.796Z,0.70
2023-10-26T03:06:42.122Z,0.70
2023-10-26T03:11:43.923Z,0.40
2023-10-26T03:16:45.669Z,0.47
2023-10-26T03:21:47.983Z,0.30
2023-10-26T03:26:49.772Z,0.20
2023-10-26T03:31:52.653Z,0.47
2023-10-26T03:36:54.398Z,0.30
2023-10-26T03:41:56.336Z,0.30
2023-10-26T03:47:00.017Z,0.10
2023-10-26T03:52:02.369Z,0.10
2023-10-26T03:57:04.738Z,0.10
2023-10-26T04:02:06.673Z,0.10
2023-10-26T04:07:09.119Z,0.20
2023-10-26T04:12:10.987Z,0.10
2023-10-26T04:17:13.565Z,0.20
2023-10-26T04:22:15.299Z,0.10
2023-10-26T04:27:17.028Z,0.10
2023-10-26T04:32:18.852Z,0.10
2023-10-26T04:37:20.717Z,0.10
2023-10-26T04:42:22.602Z,0.17
2023-10-26T04:47:24.958Z,0.10
2023-10-26T04:52:27.381Z,0.10
2023-10-26T04:57:29.094Z,0.17
2023-10-26T05:02:30.840Z,0.10
2023-10-26T05:07:32.659Z,0.20
2023-10-26T05:12:36.965Z,0.25
2023-10-26T05:17:39.419Z,0.17
2023-10-26T05:22:41.202Z,0.10
2023-10-26T05:27:42.979Z,0.15
2023-10-26T05:32:47.659Z,0.10
2023-10-26T05:37:49.496Z,0.10
2023-10-26T05:42:51.647Z,0.10
2023-10-26T05:48:06.689Z,0.10
2023-10-26T05:53:09.835Z,0.00
2023-10-26T05:58:11.524Z,0.10
2023-10-26T06:03:13.267Z,0.20
2023-10-26T06:08:15.138Z,0.10
2023-10-26T06:13:16.826Z,0.10
2023-10-26T06:18:18.694Z,0.10
2023-10-26T06:23:20.494Z,0.10
2023-10-26T06:28:22.169Z,0.10
2023-10-26T06:33:25.219Z,0.10
2023-10-26T06:38:28.981Z,0.10
2023-10-26T06:43:31.087Z,0.10
2023-10-26T06:48:33.074Z,0.20
2023-10-26T06:53:34.956Z,0.13
2023-10-26T06:58:36.609Z,0.20
2023-10-26T07:03:38.401Z,0.20
2023-10-26T07:08:40.090Z,0.13
2023-10-26T07:13:42.016Z,0.30
2023-10-26T07:18:44.686Z,0.20
2023-10-26T07:23:46.340Z,0.22
2023-10-26T07:28:48.081Z,0.30
2023-10-26T07:33:50.277Z,0.30
2023-10-26T07:39:44.726Z,0.40
2023-10-26T07:44:14.072Z,0.40
2023-10-26T07:49:15.782Z,0.35
2023-10-26T07:54:19.002Z,0.40
2023-10-26T07:59:20.821Z,0.50
2023-10-26T08:04:22.604Z,0.40
2023-10-26T08:09:24.296Z,0.43
2023-10-26T08:16:04.225Z,0.50
2023-10-26T08:19:58.392Z,0.60
2023-10-26T08:25:01.084Z,0.50
2023-10-26T08:30:07.092Z,0.50
2023-10-26T08:35:09.014Z,0.47
2023-10-26T08:40:14.110Z,0.60
2023-10-26T08:45:24.711Z,0.65
2023-10-26T08:50:26.585Z,0.60
2023-10-26T08:55:28.388Z,0.60
2023-10-26T09:00:31.755Z,0.60
2023-10-26T09:05:33.528Z,0.95
2023-10-26T09:10:35.429Z,0.60
2023-10-26T09:15:51.400Z,0.68
2023-10-26T09:21:06.273Z,0.80
2023-10-26T09:26:09.547Z,0.80
2023-10-26T09:31:11.337Z,0.60
2023-10-26T09:36:15.057Z,0.70
2023-10-26T09:41:17.916Z,0.50
2023-10-26T09:46:20.731Z,0.75
2023-10-26T09:51:22.562Z,1.00
2023-10-26T09:56:28.770Z,0.70
2023-10-26T10:01:32.743Z,0.98
2023-10-26T10:06:54.616Z,1.10
2023-10-26T10:12:05.829Z,0.80
2023-10-26T10:17:07.768Z,1.00
2023-10-26T10:22:40.241Z,0.70
2023-10-26T10:28:01.991Z,1.08
2023-10-26T10:33:04.574Z,0.90
2023-10-26T10:38:12.179Z,0.70
2023-10-26T10:43:13.931Z,1.10
2023-10-26T10:48:15.596Z,1.30
2023-10-26T10:53:18.011Z,0.60
2023-10-26T10:58:19.736Z,0.75
2023-10-26T11:03:25.070Z,0.50
2023-10-26T11:08:26.973Z,0.50
2023-10-26T11:13:28.725Z,0.50
2023-10-26T11:18:30.568Z,0.60
2023-10-26T11:23:32.371Z,0.65
2023-10-26T11:28:35.480Z,0.63
2023-10-26T11:33:40.910Z,0.50
2023-10-26T11:38:49.758Z,0.43
2023-10-26T11:43:51.885Z,0.43
2023-10-26T11:48:53.680Z,0.70
2023-10-26T11:53:56.695Z,0.68
2023-10-26T11:58:58.374Z,0.50
2023-10-26T12:04:00.184Z,0.40
2023-10-26T12:09:02.037Z,0.35
2023-10-26T12:14:03.761Z,0.47
2023-10-26T12:19:05.563Z,0.60
2023-10-26T12:24:07.481Z,0.60
2023-10-26T12:29:09.194Z,0.50
2023-10-26T12:34:11.030Z,0.55
2023-10-26T12:39:14.257Z,0.50
2023-10-26T12:44:17.288Z,0.50
2023-10-26T12:49:19.156Z,0.50
2023-10-26T12:54:20.918Z,0.50
2023-10-26T12:59:22.642Z,0.50
2023-10-26T13:04:24.590Z,0.50
2023-10-26T13:09:27.028Z,0.50
2023-10-26T13:14:29.129Z,0.50
2023-10-26T13:19:30.779Z,0.20
2023-10-26T13:24:34.028Z,0.43
2023-10-26T13:29:35.885Z,0.50
2023-10-26T13:34:37.742Z,0.50
2023-10-26T13:39:39.413Z,0.40
2023-10-26T13:44:41.374Z,0.50
2023-10-26T13:49:43.363Z,0.52
2023-10-26T13:54:46.600Z,0.50
2023-10-26T13:59:48.606Z,0.63
2023-10-26T14:04:50.658Z,0.60
2023-10-26T14:09:53.286Z,0.80
2023-10-26T14:14:54.963Z,0.80
2023-10-26T14:19:56.625Z,0.80
2023-10-26T14:24:58.689Z,0.40
2023-10-26T14:30:00.401Z,0.93
2023-10-26T14:35:02.056Z,1.10
2023-10-26T14:40:04.821Z,0.63
2023-10-26T14:45:07.055Z,0.50
2023-10-26T14:50:08.888Z,0.70
2023-10-26T14:55:10.611Z,1.75
2023-10-26T15:00:12.834Z,1.80
2023-10-26T15:05:14.516Z,2.28
2023-10-26T15:10:21.705Z,22.80
2023-10-26T15:15:29.800Z,10.02
2023-10-26T15:20:31.834Z,2.20
2023-10-26T15:25:36.936Z,1.10
2023-10-26T15:30:39.729Z,1.40
2023-10-26T15:35:41.433Z,3.60
2023-10-26T15:40:43.067Z,0.90
2023-10-26T15:45:50.740Z,0.90
2023-10-26T15:50:52.434Z,1.20
2023-10-26T15:56:03.008Z,1.25
2023-10-26T16:01:05.354Z,1.30
2023-10-26T16:06:09.923Z,1.23
2023-10-26T16:11:12.936Z,1.42
2023-10-26T16:16:15.056Z,1.70
2023-10-26T16:21:17.237Z,2.28
2023-10-26T16:26:19.171Z,3.45
2023-10-26T16:31:20.979Z,1.98
2023-10-26T16:36:25.532Z,1.85
2023-10-26T16:41:27.272Z,1.83
2023-10-26T16:46:29.033Z,1.70
2023-10-26T16:51:30.791Z,1.50
2023-10-26T16:56:32.567Z,1.67
2023-10-26T17:01:34.235Z,1.42
2023-10-26T17:06:35.919Z,1.42
2023-10-26T17:11:37.666Z,1.45
2023-10-26T17:16:39.643Z,2.20
2023-10-26T17:21:41.420Z,1.08
2023-10-26T17:26:44.258Z,1.20
2023-10-26T17:31:45.989Z,1.40
2023-10-26T17:36:47.844Z,1.60
2023-10-26T17:41:51.490Z,1.50
2023-10-26T17:46:53.356Z,1.17
2023-10-26T17:51:55.267Z,1.60
2023-10-26T17:57:25.487Z,0.95
2023-10-26T18:02:49.358Z,1.58
2023-10-26T18:07:51.041Z,1.20
2023-10-26T18:12:53.627Z,1.40
2023-10-26T18:17:55.455Z,1.30
2023-10-26T18:23:06.521Z,1.17
2023-10-26T18:28:08.891Z,1.50
2023-10-26T18:33:10.618Z,1.55
2023-10-26T18:38:12.313Z,1.13
2023-10-26T18:43:14.672Z,1.10
2023-10-26T18:48:16.297Z,1.30
2023-10-26T18:53:19.603Z,1.10
2023-10-26T18:58:23.125Z,1.30
2023-10-26T19:03:25.088Z,1.23
2023-10-26T19:08:26.883Z,1.20
2023-10-26T19:13:30.470Z,1.27
2023-10-26T19:18:32.776Z,1.30
2023-10-26T19:23:34.472Z,1.40
2023-10-26T19:28:36.201Z,1.45
2023-10-26T19:33:38.564Z,1.27
2023-10-26T19:38:40.283Z,1.10
2023-10-26T19:43:41.945Z,1.10
2023-10-26T19:48:43.726Z,1.50
2023-10-26T19:53:48.365Z,1.45
2023-10-26T19:58:50.148Z,1.88
2023-10-26T20:03:52.050Z,1.60
2023-10-26T20:08:53.898Z,1.73
2023-10-26T20:13:55.592Z,1.70
2023-10-26T20:19:03.294Z,1.75
2023-10-26T20:24:06.260Z,1.80
2023-10-26T20:29:09.004Z,1.75
2023-10-26T20:34:20.168Z,1.42
2023-10-26T20:39:21.964Z,1.50
2023-10-26T20:44:23.638Z,1.83
2023-10-26T20:49:25.281Z,1.77
2023-10-26T20:54:26.973Z,1.40
2023-10-26T20:59:28.604Z,1.70
2023-10-26T21:04:30.296Z,1.83
2023-10-26T21:09:33.311Z,1.85
2023-10-26T21:14:35.083Z,1.70
2023-10-26T21:19:36.831Z,1.75
2023-10-26T21:24:38.626Z,2.20
2023-10-26T21:29:40.485Z,2.25
2023-10-26T21:34:42.183Z,2.50
2023-10-26T21:39:44.052Z,2.58
2023-10-26T21:44:45.824Z,2.13
2023-10-26T21:49:47.496Z,2.30
2023-10-26T21:54:49.485Z,2.53
2023-10-26T21:59:51.287Z,2.08
2023-10-26T22:04:53.029Z,2.10
2023-10-26T22:09:55.738Z,2.42
2023-10-26T22:14:58.047Z,2.60
2023-10-26T22:20:00.621Z,2.13
2023-10-26T22:25:03.057Z,2.17
2023-10-26T22:30:06.970Z,2.75
2023-10-26T22:35:09.143Z,2.53
2023-10-26T22:40:11.470Z,2.63
2023-10-26T22:45:14.284Z,2.75
2023-10-26T22:50:15.989Z,2.63
2023-10-26T22:55:18.035Z,2.10
2023-10-26T23:00:20.074Z,2.30
2023-10-26T23:05:21.883Z,2.60
2023-10-26T23:10:23.764Z,2.35
2023-10-26T23:15:25.513Z,3.00
2023-10-26T23:20:27.544Z,3.20
2023-10-26T23:25:29.304Z,2.25
2023-10-26T23:30:31.046Z,2.67
2023-10-26T23:35:38.135Z,3.10
2023-10-26T23:40:39.855Z,2.88
2023-10-26T23:45:41.605Z,2.70
2023-10-26T23:50:43.308Z,3.47
2023-10-26T23:55:45.125Z,2.92
